sensor_id;sensor_type;location;lat;lon;timestamp;P1;durP1;ratioP1;P2;durP2;ratioP2
26191;SDS011;13935;55.672;37.764;2023-05-10T05:54:47;14.15;;;5.50;;
26191;SDS011;13935;55.672;37.764;2023-05-10T05:59:42;10.98;;;5.15;;
26191;SDS011;13935;55.672;37.764;2023-05-10T06:01:15;12.93;;;4.60;;
26191;SDS011;13935;55.672;37.764;2023-05-10T06:02:39;8.45;;;4.55;;
26191;SDS011;13935;55.672;37.764;2023-05-10T06:03:45;9.77;;;4.00;;
26191;SDS011;13935;55.672;37.764;2023-05-10T06:05:09;9.52;;;4.13;;
26191;SDS011;13935;55.672;37.764;2023-05-10T06:21:21;12.55;;;4.30;;
26191;SDS011;13935;55.672;37.764;2023-05-10T06:31:44;7.78;;;3.75;;
26191;SDS011;13935;55.672;37.764;2023-05-10T06:42:48;12.60;;;3.78;;
26191;SDS011;13935;55.672;37.764;2023-05-10T06:45:57;6.63;;;3.20;;
26191;SDS011;13935;55.672;37.764;2023-05-10T06:47:00;8.40;;;3.45;;
26191;SDS011;13935;55.672;37.764;2023-05-10T06:48:43;8.07;;;3.42;;
26191;SDS011;13935;55.672;37.764;2023-05-10T06:50:15;7.20;;;3.50;;
26191;SDS011;13935;55.672;37.764;2023-05-10T06:51:33;7.53;;;3.35;;
26191;SDS011;13935;55.672;37.764;2023-05-10T06:52:39;9.40;;;3.80;;
26191;SDS011;13935;55.672;37.764;2023-05-10T06:53:43;7.45;;;3.70;;
26191;SDS011;13935;55.672;37.764;2023-05-10T06:54:46;11.18;;;3.40;;
26191;SDS011;13935;55.672;37.764;2023-05-10T06:56:11;10.38;;;5.00;;
26191;SDS011;13935;55.672;37.764;2023-05-10T06:59:17;7.95;;;3.45;;
26191;SDS011;13935;55.672;37.764;2023-05-10T07:00:25;8.25;;;3.05;;
26191;SDS011;13935;55.672;37.764;2023-05-10T07:01:29;19.63;;;11.80;;
26191;SDS011;13935;55.672;37.764;2023-05-10T07:02:34;8.75;;;3.45;;
26191;SDS011;13935;55.672;37.764;2023-05-10T07:05:35;8.70;;;4.18;;
26191;SDS011;13935;55.672;37.764;2023-05-10T07:06:43;9.20;;;3.00;;
26191;SDS011;13935;55.672;37.764;2023-05-10T07:07:49;11.82;;;4.18;;
26191;SDS011;13935;55.672;37.764;2023-05-10T07:08:51;7.68;;;3.10;;
26191;SDS011;13935;55.672;37.764;2023-05-10T07:09:55;11.00;;;5.30;;
26191;SDS011;13935;55.672;37.764;2023-05-10T07:11:10;11.18;;;3.47;;
26191;SDS011;13935;55.672;37.764;2023-05-10T07:12:14;7.47;;;3.10;;
26191;SDS011;13935;55.672;37.764;2023-05-10T07:13:22;7.50;;;3.00;;
26191;SDS011;13935;55.672;37.764;2023-05-10T07:14:25;8.45;;;3.15;;
26191;SDS011;13935;55.672;37.764;2023-05-10T07:15:30;6.85;;;3.20;;
26191;SDS011;13935;55.672;37.764;2023-05-10T07:18:03;8.35;;;3.50;;
26191;SDS011;13935;55.672;37.764;2023-05-10T07:19:07;5.25;;;2.80;;
26191;SDS011;13935;55.672;37.764;2023-05-10T07:20:11;8.90;;;3.17;;
26191;SDS011;13935;55.672;37.764;2023-05-10T07:21:15;15.07;;;3.80;;
26191;SDS011;13935;55.672;37.764;2023-05-10T07:22:18;7.40;;;3.20;;
26191;SDS011;13935;55.672;37.764;2023-05-10T07:23:20;12.63;;;4.00;;
26191;SDS011;13935;55.672;37.764;2023-05-10T07:27:54;7.80;;;3.90;;
26191;SDS011;13935;55.672;37.764;2023-05-10T07:28:58;9.20;;;4.07;;
26191;SDS011;13935;55.672;37.764;2023-05-10T07:30:24;8.57;;;3.65;;
26191;SDS011;13935;55.672;37.764;2023-05-10T07:33:14;10.27;;;3.65;;
26191;SDS011;13935;55.672;37.764;2023-05-10T07:34:18;9.60;;;4.18;;
26191;SDS011;13935;55.672;37.764;2023-05-10T07:35:25;8.32;;;3.35;;
26191;SDS011;13935;55.672;37.764;2023-05-10T07:36:30;8.85;;;3.42;;
26191;SDS011;13935;55.672;37.764;2023-05-10T07:37:34;9.02;;;3.47;;
26191;SDS011;13935;55.672;37.764;2023-05-10T07:38:36;7.38;;;3.05;;
26191;SDS011;13935;55.672;37.764;2023-05-10T07:39:41;8.00;;;3.00;;
26191;SDS011;13935;55.672;37.764;2023-05-10T07:40:43;12.13;;;3.40;;
26191;SDS011;13935;55.672;37.764;2023-05-10T07:41:47;7.43;;;2.97;;
26191;SDS011;13935;55.672;37.764;2023-05-10T07:42:49;6.38;;;3.15;;
26191;SDS011;13935;55.672;37.764;2023-05-10T07:43:50;13.43;;;3.42;;
26191;SDS011;13935;55.672;37.764;2023-05-10T07:44:53;8.35;;;4.00;;
26191;SDS011;13935;55.672;37.764;2023-05-10T07:45:56;12.10;;;3.80;;
26191;SDS011;13935;55.672;37.764;2023-05-10T07:46:59;10.73;;;3.60;;
26191;SDS011;13935;55.672;37.764;2023-05-10T07:48:01;9.65;;;3.50;;
26191;SDS011;13935;55.672;37.764;2023-05-10T07:49:04;10.00;;;3.30;;
26191;SDS011;13935;55.672;37.764;2023-05-10T07:50:06;11.68;;;3.80;;
26191;SDS011;13935;55.672;37.764;2023-05-10T07:51:10;12.32;;;3.58;;
26191;SDS011;13935;55.672;37.764;2023-05-10T07:52:13;12.18;;;3.30;;
26191;SDS011;13935;55.672;37.764;2023-05-10T07:53:15;10.85;;;3.17;;
26191;SDS011;13935;55.672;37.764;2023-05-10T07:54:17;8.02;;;3.30;;
26191;SDS011;13935;55.672;37.764;2023-05-10T07:55:20;10.10;;;3.42;;
26191;SDS011;13935;55.672;37.764;2023-05-10T07:56:25;14.25;;;3.63;;
26191;SDS011;13935;55.672;37.764;2023-05-10T07:57:31;9.75;;;3.60;;
26191;SDS011;13935;55.672;37.764;2023-05-10T07:58:33;10.93;;;3.28;;
26191;SDS011;13935;55.672;37.764;2023-05-10T07:59:35;16.58;;;3.58;;
26191;SDS011;13935;55.672;37.764;2023-05-10T08:00:37;12.25;;;3.60;;
26191;SDS011;13935;55.672;37.764;2023-05-10T08:01:41;10.98;;;4.32;;
26191;SDS011;13935;55.672;37.764;2023-05-10T08:02:44;8.25;;;3.13;;
26191;SDS011;13935;55.672;37.764;2023-05-10T08:03:46;10.50;;;3.22;;
26191;SDS011;13935;55.672;37.764;2023-05-10T08:04:48;10.15;;;3.20;;
26191;SDS011;13935;55.672;37.764;2023-05-10T08:05:50;12.05;;;3.33;;
26191;SDS011;13935;55.672;37.764;2023-05-10T08:06:52;7.78;;;3.45;;
26191;SDS011;13935;55.672;37.764;2023-05-10T08:07:54;8.00;;;3.58;;
26191;SDS011;13935;55.672;37.764;2023-05-10T08:08:57;10.88;;;3.33;;
26191;SDS011;13935;55.672;37.764;2023-05-10T08:10:00;9.13;;;3.50;;
26191;SDS011;13935;55.672;37.764;2023-05-10T08:11:27;7.32;;;3.00;;
26191;SDS011;13935;55.672;37.764;2023-05-10T08:12:37;10.80;;;3.50;;
26191;SDS011;13935;55.672;37.764;2023-05-10T08:13:42;7.50;;;3.03;;
26191;SDS011;13935;55.672;37.764;2023-05-10T08:14:46;8.38;;;2.97;;
26191;SDS011;13935;55.672;37.764;2023-05-10T08:16:16;8.73;;;3.08;;
26191;SDS011;13935;55.672;37.764;2023-05-10T08:17:18;9.77;;;3.38;;
26191;SDS011;13935;55.672;37.764;2023-05-10T08:18:23;5.47;;;2.90;;
26191;SDS011;13935;55.672;37.764;2023-05-10T08:19:25;7.63;;;3.17;;
26191;SDS011;13935;55.672;37.764;2023-05-10T08:20:27;6.60;;;2.90;;
26191;SDS011;13935;55.672;37.764;2023-05-10T08:21:30;7.20;;;2.60;;
26191;SDS011;13935;55.672;37.764;2023-05-10T08:22:33;6.05;;;2.47;;
26191;SDS011;13935;55.672;37.764;2023-05-10T08:23:35;5.05;;;2.10;;
26191;SDS011;13935;55.672;37.764;2023-05-10T08:24:37;3.80;;;2.00;;
26191;SDS011;13935;55.672;37.764;2023-05-10T08:25:40;5.00;;;2.20;;
26191;SDS011;13935;55.672;37.764;2023-05-10T08:26:46;4.38;;;2.65;;
26191;SDS011;13935;55.672;37.764;2023-05-10T08:27:51;2.20;;;1.52;;
26191;SDS011;13935;55.672;37.764;2023-05-10T08:28:53;4.20;;;2.13;;
26191;SDS011;13935;55.672;37.764;2023-05-10T08:29:56;9.35;;;2.83;;
26191;SDS011;13935;55.672;37.764;2023-05-10T08:32:57;4.35;;;2.10;;
26191;SDS011;13935;55.672;37.764;2023-05-10T08:34:26;4.10;;;2.00;;
26191;SDS011;13935;55.672;37.764;2023-05-10T08:35:45;3.72;;;2.10;;
26191;SDS011;13935;55.672;37.764;2023-05-10T08:36:49;4.25;;;2.03;;
26191;SDS011;13935;55.672;37.764;2023-05-10T08:37:51;4.78;;;1.80;;
26191;SDS011;13935;55.672;37.764;2023-05-10T08:38:58;3.95;;;1.80;;
26191;SDS011;13935;55.672;37.764;2023-05-10T08:40:19;3.28;;;1.98;;
26191;SDS011;13935;55.672;37.764;2023-05-10T08:41:26;4.00;;;1.70;;
26191;SDS011;13935;55.672;37.764;2023-05-10T08:42:30;4.35;;;2.08;;
26191;SDS011;13935;55.672;37.764;2023-05-10T08:43:49;4.38;;;2.10;;
26191;SDS011;13935;55.672;37.764;2023-05-10T08:45:07;3.88;;;2.20;;
26191;SDS011;13935;55.672;37.764;2023-05-10T08:46:22;7.35;;;2.53;;
26191;SDS011;13935;55.672;37.764;2023-05-10T08:47:25;5.97;;;2.22;;
26191;SDS011;13935;55.672;37.764;2023-05-10T08:48:54;8.75;;;4.57;;
26191;SDS011;13935;55.672;37.764;2023-05-10T08:50:01;12.07;;;4.65;;
26191;SDS011;13935;55.672;37.764;2023-05-10T08:51:26;7.70;;;2.90;;
26191;SDS011;13935;55.672;37.764;2023-05-10T08:52:45;6.95;;;4.00;;
26191;SDS011;13935;55.672;37.764;2023-05-10T08:53:53;7.22;;;2.97;;
26191;SDS011;13935;55.672;37.764;2023-05-10T08:55:02;4.68;;;2.70;;
26191;SDS011;13935;55.672;37.764;2023-05-10T09:07:35;5.47;;;3.20;;
26191;SDS011;13935;55.672;37.764;2023-05-10T09:17:45;7.63;;;3.38;;
26191;SDS011;13935;55.672;37.764;2023-05-10T09:29:41;9.40;;;2.90;;
26191;SDS011;13935;55.672;37.764;2023-05-10T09:30:52;8.82;;;3.30;;
26191;SDS011;13935;55.672;37.764;2023-05-10T09:32:20;8.45;;;3.50;;
26191;SDS011;13935;55.672;37.764;2023-05-10T09:33:43;7.82;;;3.25;;
26191;SDS011;13935;55.672;37.764;2023-05-10T09:35:51;15.32;;;5.13;;
26191;SDS011;13935;55.672;37.764;2023-05-10T09:48:49;8.45;;;3.78;;
26191;SDS011;13935;55.672;37.764;2023-05-10T09:50:10;6.72;;;3.58;;
26191;SDS011;13935;55.672;37.764;2023-05-10T09:51:29;5.82;;;3.22;;
26191;SDS011;13935;55.672;37.764;2023-05-10T09:52:31;6.55;;;3.50;;
26191;SDS011;13935;55.672;37.764;2023-05-10T09:54:08;6.30;;;3.80;;
26191;SDS011;13935;55.672;37.764;2023-05-10T09:55:15;10.85;;;4.20;;
26191;SDS011;13935;55.672;37.764;2023-05-10T09:58:19;8.18;;;4.25;;
26191;SDS011;13935;55.672;37.764;2023-05-10T09:59:35;7.45;;;3.50;;
26191;SDS011;13935;55.672;37.764;2023-05-10T10:00:46;10.07;;;3.35;;
26191;SDS011;13935;55.672;37.764;2023-05-10T10:02:11;9.80;;;3.70;;
26191;SDS011;13935;55.672;37.764;2023-05-10T10:03:15;7.63;;;3.33;;
26191;SDS011;13935;55.672;37.764;2023-05-10T10:04:18;7.15;;;3.50;;
26191;SDS011;13935;55.672;37.764;2023-05-10T10:05:27;6.57;;;3.42;;
26191;SDS011;13935;55.672;37.764;2023-05-10T10:06:40;9.13;;;3.13;;
26191;SDS011;13935;55.672;37.764;2023-05-10T10:07:42;7.47;;;3.28;;
26191;SDS011;13935;55.672;37.764;2023-05-10T10:08:45;10.18;;;3.50;;
26191;SDS011;13935;55.672;37.764;2023-05-10T10:09:47;8.73;;;4.78;;
26191;SDS011;13935;55.672;37.764;2023-05-10T10:10:49;11.05;;;7.20;;
26191;SDS011;13935;55.672;37.764;2023-05-10T10:11:54;11.73;;;4.90;;
26191;SDS011;13935;55.672;37.764;2023-05-10T10:12:56;7.07;;;3.28;;
26191;SDS011;13935;55.672;37.764;2023-05-10T10:13:59;6.32;;;3.63;;
26191;SDS011;13935;55.672;37.764;2023-05-10T10:15:01;5.85;;;3.25;;
26191;SDS011;13935;55.672;37.764;2023-05-10T10:16:05;7.95;;;3.30;;
26191;SDS011;13935;55.672;37.764;2023-05-10T10:17:10;8.27;;;3.10;;
26191;SDS011;13935;55.672;37.764;2023-05-10T10:18:13;6.00;;;3.38;;
26191;SDS011;13935;55.672;37.764;2023-05-10T10:19:20;7.00;;;3.30;;
26191;SDS011;13935;55.672;37.764;2023-05-10T10:20:25;8.38;;;3.10;;
26191;SDS011;13935;55.672;37.764;2023-05-10T10:21:28;7.97;;;3.40;;
26191;SDS011;13935;55.672;37.764;2023-05-10T10:22:30;11.70;;;3.28;;
26191;SDS011;13935;55.672;37.764;2023-05-10T10:23:33;6.75;;;3.67;;
26191;SDS011;13935;55.672;37.764;2023-05-10T10:24:36;5.32;;;3.00;;
26191;SDS011;13935;55.672;37.764;2023-05-10T10:25:38;5.32;;;3.42;;
26191;SDS011;13935;55.672;37.764;2023-05-10T10:26:41;8.15;;;3.55;;
26191;SDS011;13935;55.672;37.764;2023-05-10T10:27:47;7.20;;;3.20;;
26191;SDS011;13935;55.672;37.764;2023-05-10T10:31:49;6.43;;;3.15;;
26191;SDS011;13935;55.672;37.764;2023-05-10T10:34:49;6.60;;;3.95;;
26191;SDS011;13935;55.672;37.764;2023-05-10T10:35:51;7.40;;;3.53;;
26191;SDS011;13935;55.672;37.764;2023-05-10T10:36:57;5.32;;;3.72;;
26191;SDS011;13935;55.672;37.764;2023-05-10T10:37:59;5.78;;;3.20;;
26191;SDS011;13935;55.672;37.764;2023-05-10T10:39:07;5.90;;;3.30;;
26191;SDS011;13935;55.672;37.764;2023-05-10T10:41:36;10.25;;;5.60;;
26191;SDS011;13935;55.672;37.764;2023-05-10T10:42:51;8.95;;;4.10;;
26191;SDS011;13935;55.672;37.764;2023-05-10T10:45:38;8.93;;;3.90;;
26191;SDS011;13935;55.672;37.764;2023-05-10T10:48:22;7.55;;;3.70;;
26191;SDS011;13935;55.672;37.764;2023-05-10T10:50:26;7.50;;;2.90;;
26191;SDS011;13935;55.672;37.764;2023-05-10T10:51:28;5.50;;;3.17;;
26191;SDS011;13935;55.672;37.764;2023-05-10T10:53:40;7.82;;;3.33;;
26191;SDS011;13935;55.672;37.764;2023-05-10T10:57:25;6.35;;;2.97;;
26191;SDS011;13935;55.672;37.764;2023-05-10T10:58:28;5.85;;;3.28;;
26191;SDS011;13935;55.672;37.764;2023-05-10T10:59:33;5.88;;;3.38;;
26191;SDS011;13935;55.672;37.764;2023-05-10T11:00:36;7.55;;;3.15;;
26191;SDS011;13935;55.672;37.764;2023-05-10T11:01:41;6.45;;;3.67;;
26191;SDS011;13935;55.672;37.764;2023-05-10T11:02:46;9.63;;;3.60;;
26191;SDS011;13935;55.672;37.764;2023-05-10T11:06:35;8.60;;;3.42;;
26191;SDS011;13935;55.672;37.764;2023-05-10T11:07:50;7.38;;;3.47;;
26191;SDS011;13935;55.672;37.764;2023-05-10T11:08:53;6.47;;;3.58;;
26191;SDS011;13935;55.672;37.764;2023-05-10T11:09:56;8.00;;;3.53;;
26191;SDS011;13935;55.672;37.764;2023-05-10T11:11:06;9.75;;;3.90;;
26191;SDS011;13935;55.672;37.764;2023-05-10T11:12:12;7.07;;;3.60;;
26191;SDS011;13935;55.672;37.764;2023-05-10T11:13:14;9.57;;;3.80;;
26191;SDS011;13935;55.672;37.764;2023-05-10T11:14:19;7.70;;;3.60;;
26191;SDS011;13935;55.672;37.764;2023-05-10T11:15:28;5.28;;;3.35;;
26191;SDS011;13935;55.672;37.764;2023-05-10T11:16:47;6.90;;;3.78;;
26191;SDS011;13935;55.672;37.764;2023-05-10T11:17:49;8.07;;;3.78;;
26191;SDS011;13935;55.672;37.764;2023-05-10T11:19:03;7.35;;;3.72;;
26191;SDS011;13935;55.672;37.764;2023-05-10T11:20:13;6.10;;;3.30;;
26191;SDS011;13935;55.672;37.764;2023-05-10T11:21:17;5.60;;;3.47;;
26191;SDS011;13935;55.672;37.764;2023-05-10T11:22:24;6.03;;;3.22;;
26191;SDS011;13935;55.672;37.764;2023-05-10T11:23:31;6.80;;;3.17;;
26191;SDS011;13935;55.672;37.764;2023-05-10T11:24:55;5.10;;;3.10;;
26191;SDS011;13935;55.672;37.764;2023-05-10T11:26:00;5.13;;;3.25;;
26191;SDS011;13935;55.672;37.764;2023-05-10T11:27:06;8.60;;;3.65;;
26191;SDS011;13935;55.672;37.764;2023-05-10T11:28:08;6.93;;;3.38;;
26191;SDS011;13935;55.672;37.764;2023-05-10T11:29:12;7.60;;;3.15;;
26191;SDS011;13935;55.672;37.764;2023-05-10T11:30:15;9.00;;;3.42;;
26191;SDS011;13935;55.672;37.764;2023-05-10T11:31:20;8.00;;;3.13;;
26191;SDS011;13935;55.672;37.764;2023-05-10T11:32:28;8.57;;;3.20;;
26191;SDS011;13935;55.672;37.764;2023-05-10T11:34:31;5.93;;;3.47;;
26191;SDS011;13935;55.672;37.764;2023-05-10T11:35:37;6.43;;;3.08;;
26191;SDS011;13935;55.672;37.764;2023-05-10T11:36:44;6.25;;;3.10;;
26191;SDS011;13935;55.672;37.764;2023-05-10T11:37:53;5.47;;;3.30;;
26191;SDS011;13935;55.672;37.764;2023-05-10T11:38:55;7.32;;;3.47;;
26191;SDS011;13935;55.672;37.764;2023-05-10T11:39:58;5.63;;;3.22;;
26191;SDS011;13935;55.672;37.764;2023-05-10T11:41:03;7.45;;;3.53;;
26191;SDS011;13935;55.672;37.764;2023-05-10T11:42:11;6.60;;;3.28;;
26191;SDS011;13935;55.672;37.764;2023-05-10T11:43:14;8.30;;;3.22;;
26191;SDS011;13935;55.672;37.764;2023-05-10T11:44:16;7.22;;;3.47;;
26191;SDS011;13935;55.672;37.764;2023-05-10T11:45:18;6.82;;;3.03;;
26191;SDS011;13935;55.672;37.764;2023-05-10T11:46:21;5.97;;;3.05;;
26191;SDS011;13935;55.672;37.764;2023-05-10T11:47:28;6.20;;;3.33;;
26191;SDS011;13935;55.672;37.764;2023-05-10T11:48:30;5.18;;;3.17;;
26191;SDS011;13935;55.672;37.764;2023-05-10T11:49:33;6.65;;;3.17;;
26191;SDS011;13935;55.672;37.764;2023-05-10T11:50:36;6.72;;;3.30;;
26191;SDS011;13935;55.672;37.764;2023-05-10T11:51:38;5.88;;;3.30;;
26191;SDS011;13935;55.672;37.764;2023-05-10T11:52:41;5.30;;;3.13;;
26191;SDS011;13935;55.672;37.764;2023-05-10T11:53:44;5.10;;;2.92;;
26191;SDS011;13935;55.672;37.764;2023-05-10T11:54:51;6.88;;;3.40;;
26191;SDS011;13935;55.672;37.764;2023-05-10T11:55:53;8.00;;;3.00;;
26191;SDS011;13935;55.672;37.764;2023-05-10T11:56:56;6.13;;;2.97;;
26191;SDS011;13935;55.672;37.764;2023-05-10T11:58:00;6.60;;;3.33;;
26191;SDS011;13935;55.672;37.764;2023-05-10T11:59:03;9.68;;;3.97;;
26191;SDS011;13935;55.672;37.764;2023-05-10T12:00:05;5.65;;;3.17;;
26191;SDS011;13935;55.672;37.764;2023-05-10T12:01:08;7.80;;;4.30;;
26191;SDS011;13935;55.672;37.764;2023-05-10T12:02:14;8.20;;;4.00;;
26191;SDS011;13935;55.672;37.764;2023-05-10T12:03:17;5.45;;;3.08;;
26191;SDS011;13935;55.672;37.764;2023-05-10T12:04:20;7.70;;;3.10;;
26191;SDS011;13935;55.672;37.764;2023-05-10T12:05:23;5.65;;;3.38;;
26191;SDS011;13935;55.672;37.764;2023-05-10T12:06:28;6.97;;;3.58;;
26191;SDS011;13935;55.672;37.764;2023-05-10T12:07:36;5.25;;;3.40;;
26191;SDS011;13935;55.672;37.764;2023-05-10T12:08:44;5.93;;;2.70;;
26191;SDS011;13935;55.672;37.764;2023-05-10T12:11:07;5.28;;;3.08;;
26191;SDS011;13935;55.672;37.764;2023-05-10T12:12:16;7.07;;;3.63;;
26191;SDS011;13935;55.672;37.764;2023-05-10T12:13:18;5.70;;;3.45;;
26191;SDS011;13935;55.672;37.764;2023-05-10T12:14:22;8.70;;;4.38;;
26191;SDS011;13935;55.672;37.764;2023-05-10T12:15:26;11.75;;;3.90;;
26191;SDS011;13935;55.672;37.764;2023-05-10T12:16:29;6.40;;;3.58;;
26191;SDS011;13935;55.672;37.764;2023-05-10T12:17:32;7.53;;;3.47;;
26191;SDS011;13935;55.672;37.764;2023-05-10T12:18:34;7.13;;;3.47;;
26191;SDS011;13935;55.672;37.764;2023-05-10T12:19:41;7.47;;;3.00;;
26191;SDS011;13935;55.672;37.764;2023-05-10T12:20:45;5.38;;;3.13;;
26191;SDS011;13935;55.672;37.764;2023-05-10T12:21:47;5.68;;;3.00;;
26191;SDS011;13935;55.672;37.764;2023-05-10T12:22:53;6.53;;;3.20;;
26191;SDS011;13935;55.672;37.764;2023-05-10T12:24:02;5.10;;;3.13;;
26191;SDS011;13935;55.672;37.764;2023-05-10T12:25:05;5.45;;;3.05;;
26191;SDS011;13935;55.672;37.764;2023-05-10T12:26:09;6.93;;;3.83;;
26191;SDS011;13935;55.672;37.764;2023-05-10T12:27:17;7.85;;;3.13;;
26191;SDS011;13935;55.672;37.764;2023-05-10T12:28:21;6.28;;;3.38;;
26191;SDS011;13935;55.672;37.764;2023-05-10T12:29:23;6.68;;;3.22;;
26191;SDS011;13935;55.672;37.764;2023-05-10T12:30:26;6.60;;;2.78;;
26191;SDS011;13935;55.672;37.764;2023-05-10T12:31:30;7.72;;;3.10;;
26191;SDS011;13935;55.672;37.764;2023-05-10T12:32:43;7.32;;;3.20;;
26191;SDS011;13935;55.672;37.764;2023-05-10T12:33:46;7.07;;;3.30;;
26191;SDS011;13935;55.672;37.764;2023-05-10T12:34:48;8.02;;;3.47;;
26191;SDS011;13935;55.672;37.764;2023-05-10T12:37:02;6.82;;;3.40;;
26191;SDS011;13935;55.672;37.764;2023-05-10T12:38:22;7.28;;;3.17;;
26191;SDS011;13935;55.672;37.764;2023-05-10T12:39:40;8.13;;;3.42;;
26191;SDS011;13935;55.672;37.764;2023-05-10T12:40:43;6.65;;;3.22;;
26191;SDS011;13935;55.672;37.764;2023-05-10T12:41:45;7.32;;;3.20;;
26191;SDS011;13935;55.672;37.764;2023-05-10T12:42:53;6.65;;;3.20;;
26191;SDS011;13935;55.672;37.764;2023-05-10T12:43:58;5.85;;;3.00;;
26191;SDS011;13935;55.672;37.764;2023-05-10T12:45:01;6.30;;;2.97;;
26191;SDS011;13935;55.672;37.764;2023-05-10T12:46:09;6.78;;;3.20;;
26191;SDS011;13935;55.672;37.764;2023-05-10T12:48:15;6.68;;;3.55;;
26191;SDS011;13935;55.672;37.764;2023-05-10T12:49:17;8.15;;;3.50;;
26191;SDS011;13935;55.672;37.764;2023-05-10T12:50:20;8.60;;;2.95;;
26191;SDS011;13935;55.672;37.764;2023-05-10T12:51:22;6.47;;;3.15;;
26191;SDS011;13935;55.672;37.764;2023-05-10T12:52:25;7.28;;;3.00;;
26191;SDS011;13935;55.672;37.764;2023-05-10T12:53:27;6.15;;;3.13;;
26191;SDS011;13935;55.672;37.764;2023-05-10T12:54:29;5.32;;;3.05;;
26191;SDS011;13935;55.672;37.764;2023-05-10T12:55:32;6.47;;;3.00;;
26191;SDS011;13935;55.672;37.764;2023-05-10T12:56:34;5.93;;;3.30;;
26191;SDS011;13935;55.672;37.764;2023-05-10T12:57:37;6.13;;;3.22;;
26191;SDS011;13935;55.672;37.764;2023-05-10T12:58:39;7.88;;;3.60;;
26191;SDS011;13935;55.672;37.764;2023-05-10T12:59:48;6.63;;;3.15;;
26191;SDS011;13935;55.672;37.764;2023-05-10T13:00:51;8.02;;;4.43;;
26191;SDS011;13935;55.672;37.764;2023-05-10T13:01:54;8.02;;;3.85;;
26191;SDS011;13935;55.672;37.764;2023-05-10T13:02:57;12.55;;;3.40;;
26191;SDS011;13935;55.672;37.764;2023-05-10T13:03:59;5.95;;;3.05;;
26191;SDS011;13935;55.672;37.764;2023-05-10T13:05:01;5.05;;;3.00;;
26191;SDS011;13935;55.672;37.764;2023-05-10T13:06:04;6.38;;;2.70;;
26191;SDS011;13935;55.672;37.764;2023-05-10T13:07:08;8.07;;;3.45;;
26191;SDS011;13935;55.672;37.764;2023-05-10T13:08:10;8.05;;;3.58;;
26191;SDS011;13935;55.672;37.764;2023-05-10T13:09:12;6.40;;;3.65;;
26191;SDS011;13935;55.672;37.764;2023-05-10T13:10:15;7.75;;;3.28;;
26191;SDS011;13935;55.672;37.764;2023-05-10T13:11:18;5.53;;;3.83;;
26191;SDS011;13935;55.672;37.764;2023-05-10T13:12:23;5.60;;;3.40;;
26191;SDS011;13935;55.672;37.764;2023-05-10T13:13:26;7.78;;;3.20;;
26191;SDS011;13935;55.672;37.764;2023-05-10T13:14:28;5.32;;;3.00;;
26191;SDS011;13935;55.672;37.764;2023-05-10T13:15:31;5.22;;;2.85;;
26191;SDS011;13935;55.672;37.764;2023-05-10T13:16:34;9.63;;;3.58;;
26191;SDS011;13935;55.672;37.764;2023-05-10T13:17:38;8.68;;;3.28;;
26191;SDS011;13935;55.672;37.764;2023-05-10T13:18:42;5.07;;;3.10;;
26191;SDS011;13935;55.672;37.764;2023-05-10T13:19:44;7.85;;;2.90;;
26191;SDS011;13935;55.672;37.764;2023-05-10T13:20:46;6.35;;;3.17;;
26191;SDS011;13935;55.672;37.764;2023-05-10T13:21:48;7.50;;;3.05;;
26191;SDS011;13935;55.672;37.764;2023-05-10T13:22:50;7.35;;;3.40;;
26191;SDS011;13935;55.672;37.764;2023-05-10T13:23:57;7.50;;;3.42;;
26191;SDS011;13935;55.672;37.764;2023-05-10T13:25:05;7.22;;;3.70;;
26191;SDS011;13935;55.672;37.764;2023-05-10T13:26:13;5.18;;;3.15;;
26191;SDS011;13935;55.672;37.764;2023-05-10T13:44:23;7.38;;;3.10;;
26191;SDS011;13935;55.672;37.764;2023-05-10T15:09:19;7.28;;;3.45;;
26191;SDS011;13935;55.672;37.764;2023-05-10T15:56:15;10.85;;;3.70;;
26191;SDS011;13935;55.672;37.764;2023-05-10T16:27:18;7.10;;;3.50;;
26191;SDS011;13935;55.672;37.764;2023-05-10T16:29:08;8.10;;;3.80;;
26191;SDS011;13935;55.672;37.764;2023-05-10T17:11:34;11.00;;;5.53;;
26191;SDS011;13935;55.672;37.764;2023-05-10T17:17:31;13.00;;;5.20;;
26191;SDS011;13935;55.672;37.764;2023-05-10T17:21:20;11.52;;;5.10;;
26191;SDS011;13935;55.672;37.764;2023-05-10T17:26:13;12.20;;;5.65;;
26191;SDS011;13935;55.672;37.764;2023-05-10T17:31:36;12.55;;;6.78;;
26191;SDS011;13935;55.672;37.764;2023-05-10T17:41:58;16.83;;;9.52;;
26191;SDS011;13935;55.672;37.764;2023-05-10T17:44:01;17.90;;;9.30;;
26191;SDS011;13935;55.672;37.764;2023-05-10T17:45:40;18.67;;;8.32;;
26191;SDS011;13935;55.672;37.764;2023-05-10T17:48:01;20.33;;;9.23;;
26191;SDS011;13935;55.672;37.764;2023-05-10T17:49:40;17.27;;;9.40;;
26191;SDS011;13935;55.672;37.764;2023-05-10T17:51:25;25.45;;;10.00;;
26191;SDS011;13935;55.672;37.764;2023-05-10T17:52:35;26.90;;;11.70;;
26191;SDS011;13935;55.672;37.764;2023-05-10T17:54:09;22.30;;;8.95;;
26191;SDS011;13935;55.672;37.764;2023-05-10T17:56:09;22.15;;;9.45;;
26191;SDS011;13935;55.672;37.764;2023-05-10T17:58:43;19.67;;;9.40;;
26191;SDS011;13935;55.672;37.764;2023-05-10T18:02:06;22.55;;;10.60;;
26191;SDS011;13935;55.672;37.764;2023-05-10T18:05:38;30.70;;;12.68;;
26191;SDS011;13935;55.672;37.764;2023-05-10T18:07:15;35.45;;;13.48;;
26191;SDS011;13935;55.672;37.764;2023-05-10T18:13:06;30.58;;;13.95;;
26191;SDS011;13935;55.672;37.764;2023-05-10T18:14:39;31.52;;;13.98;;
26191;SDS011;13935;55.672;37.764;2023-05-10T18:16:17;34.20;;;14.43;;
26191;SDS011;13935;55.672;37.764;2023-05-10T18:21:40;29.98;;;14.80;;
26191;SDS011;13935;55.672;37.764;2023-05-10T18:23:01;34.17;;;14.68;;
26191;SDS011;13935;55.672;37.764;2023-05-10T18:24:17;36.72;;;14.60;;
26191;SDS011;13935;55.672;37.764;2023-05-10T18:25:42;30.98;;;15.30;;
26191;SDS011;13935;55.672;37.764;2023-05-10T18:26:46;42.00;;;15.18;;
26191;SDS011;13935;55.672;37.764;2023-05-10T18:27:57;37.35;;;14.63;;
26191;SDS011;13935;55.672;37.764;2023-05-10T18:29:30;31.27;;;14.70;;
26191;SDS011;13935;55.672;37.764;2023-05-10T18:31:44;36.13;;;14.20;;
26191;SDS011;13935;55.672;37.764;2023-05-10T18:34:34;34.78;;;15.10;;
26191;SDS011;13935;55.672;37.764;2023-05-10T18:41:42;45.00;;;16.40;;
26191;SDS011;13935;55.672;37.764;2023-05-10T18:45:35;39.00;;;17.05;;
26191;SDS011;13935;55.672;37.764;2023-05-10T18:46:44;50.65;;;16.73;;
26191;SDS011;13935;55.672;37.764;2023-05-10T18:48:08;44.60;;;17.00;;
26191;SDS011;13935;55.672;37.764;2023-05-10T18:49:11;44.03;;;16.95;;
26191;SDS011;13935;55.672;37.764;2023-05-10T18:50:13;38.25;;;15.38;;
26191;SDS011;13935;55.672;37.764;2023-05-10T18:51:20;38.40;;;15.98;;
26191;SDS011;13935;55.672;37.764;2023-05-10T18:52:23;38.17;;;15.63;;
26191;SDS011;13935;55.672;37.764;2023-05-10T18:53:27;32.97;;;17.50;;
26191;SDS011;13935;55.672;37.764;2023-05-10T18:54:45;38.10;;;17.00;;
26191;SDS011;13935;55.672;37.764;2023-05-10T18:55:59;36.40;;;16.33;;
26191;SDS011;13935;55.672;37.764;2023-05-10T18:57:29;34.53;;;15.98;;
26191;SDS011;13935;55.672;37.764;2023-05-10T19:01:05;41.05;;;15.88;;
26191;SDS011;13935;55.672;37.764;2023-05-10T19:02:44;42.97;;;16.77;;
26191;SDS011;13935;55.672;37.764;2023-05-10T19:04:40;35.08;;;15.02;;
26191;SDS011;13935;55.672;37.764;2023-05-10T19:06:45;34.85;;;14.77;;
26191;SDS011;13935;55.672;37.764;2023-05-10T19:11:54;31.90;;;16.35;;
26191;SDS011;13935;55.672;37.764;2023-05-10T19:13:28;34.83;;;16.00;;
26191;SDS011;13935;55.672;37.764;2023-05-10T19:14:48;33.33;;;16.23;;